sensor_id;sensor_type;location;lat;lon;timestamp;P1;durP1;ratioP1;P2;durP2;ratioP2
58468;SDS011;44257;44.804;10.220;2023-02-28T00:01:22;11.75;;;4.80;;
58468;SDS011;44257;44.804;10.220;2023-02-28T00:03:48;6.78;;;4.10;;
58468;SDS011;44257;44.804;10.220;2023-02-28T00:06:14;8.07;;;4.85;;
58468;SDS011;44257;44.804;10.220;2023-02-28T00:08:40;9.52;;;5.25;;
58468;SDS011;44257;44.804;10.220;2023-02-28T00:11:07;8.05;;;4.05;;
58468;SDS011;44257;44.804;10.220;2023-02-28T00:13:35;12.05;;;5.05;;
58468;SDS011;44257;44.804;10.220;2023-02-28T00:16:04;13.15;;;4.93;;
58468;SDS011;44257;44.804;10.220;2023-02-28T00:18:34;9.25;;;4.35;;
58468;SDS011;44257;44.804;10.220;2023-02-28T00:21:01;9.68;;;4.60;;
58468;SDS011;44257;44.804;10.220;2023-02-28T00:23:27;11.98;;;4.93;;
58468;SDS011;44257;44.804;10.220;2023-02-28T00:25:53;10.07;;;4.78;;
58468;SDS011;44257;44.804;10.220;2023-02-28T00:28:19;9.30;;;5.32;;
58468;SDS011;44257;44.804;10.220;2023-02-28T00:30:45;13.80;;;5.15;;
58468;SDS011;44257;44.804;10.220;2023-02-28T00:33:11;10.52;;;4.28;;
58468;SDS011;44257;44.804;10.220;2023-02-28T00:35:37;11.38;;;4.47;;
58468;SDS011;44257;44.804;10.220;2023-02-28T00:38:03;13.50;;;5.93;;
58468;SDS011;44257;44.804;10.220;2023-02-28T00:40:29;15.27;;;5.35;;
58468;SDS011;44257;44.804;10.220;2023-02-28T00:42:55;7.43;;;4.60;;
58468;SDS011;44257;44.804;10.220;2023-02-28T00:45:21;9.38;;;4.90;;
58468;SDS011;44257;44.804;10.220;2023-02-28T00:47:47;11.00;;;4.38;;
58468;SDS011;44257;44.804;10.220;2023-02-28T00:50:17;11.23;;;4.25;;
58468;SDS011;44257;44.804;10.220;2023-02-28T00:52:45;10.52;;;4.93;;
58468;SDS011;44257;44.804;10.220;2023-02-28T00:55:13;6.18;;;3.88;;
58468;SDS011;44257;44.804;10.220;2023-02-28T00:57:39;9.98;;;4.05;;
58468;SDS011;44257;44.804;10.220;2023-02-28T01:00:05;9.32;;;4.30;;
58468;SDS011;44257;44.804;10.220;2023-02-28T01:02:32;8.95;;;5.15;;
58468;SDS011;44257;44.804;10.220;2023-02-28T01:04:58;11.40;;;5.25;;
58468;SDS011;44257;44.804;10.220;2023-02-28T01:07:24;10.00;;;4.55;;
58468;SDS011;44257;44.804;10.220;2023-02-28T01:09:50;10.43;;;4.88;;
58468;SDS011;44257;44.804;10.220;2023-02-28T01:12:16;10.90;;;5.15;;
58468;SDS011;44257;44.804;10.220;2023-02-28T01:14:42;9.35;;;4.78;;
58468;SDS011;44257;44.804;10.220;2023-02-28T01:17:08;8.48;;;4.85;;
58468;SDS011;44257;44.804;10.220;2023-02-28T01:19:34;8.05;;;4.65;;
58468;SDS011;44257;44.804;10.220;2023-02-28T01:22:02;10.57;;;5.50;;
58468;SDS011;44257;44.804;10.220;2023-02-28T01:24:29;10.43;;;5.55;;
58468;SDS011;44257;44.804;10.220;2023-02-28T01:26:55;16.40;;;6.85;;
58468;SDS011;44257;44.804;10.220;2023-02-28T01:29:21;19.58;;;7.90;;
58468;SDS011;44257;44.804;10.220;2023-02-28T01:31:47;13.23;;;6.82;;
58468;SDS011;44257;44.804;10.220;2023-02-28T01:34:13;14.95;;;6.25;;
58468;SDS011;44257;44.804;10.220;2023-02-28T01:36:39;13.35;;;5.85;;
58468;SDS011;44257;44.804;10.220;2023-02-28T01:39:05;11.88;;;4.57;;
58468;SDS011;44257;44.804;10.220;2023-02-28T01:41:31;12.10;;;4.53;;
58468;SDS011;44257;44.804;10.220;2023-02-28T01:44:07;9.77;;;4.85;;
58468;SDS011;44257;44.804;10.220;2023-02-28T01:46:51;18.13;;;6.53;;
58468;SDS011;44257;44.804;10.220;2023-02-28T01:49:17;14.45;;;6.65;;
58468;SDS011;44257;44.804;10.220;2023-02-28T01:51:44;15.60;;;6.95;;
58468;SDS011;44257;44.804;10.220;2023-02-28T01:54:22;12.50;;;6.85;;
58468;SDS011;44257;44.804;10.220;2023-02-28T01:57:04;12.48;;;5.80;;
58468;SDS011;44257;44.804;10.220;2023-02-28T01:59:42;10.68;;;6.28;;
58468;SDS011;44257;44.804;10.220;2023-02-28T02:02:14;14.77;;;5.47;;
58468;SDS011;44257;44.804;10.220;2023-02-28T02:04:52;9.32;;;5.28;;
58468;SDS011;44257;44.804;10.220;2023-02-28T02:07:24;9.35;;;5.35;;
58468;SDS011;44257;44.804;10.220;2023-02-28T02:09:59;12.68;;;6.20;;
58468;SDS011;44257;44.804;10.220;2023-02-28T02:16:00;10.63;;;5.78;;
58468;SDS011;44257;44.804;10.220;2023-02-28T02:18:54;8.10;;;4.47;;
58468;SDS011;44257;44.804;10.220;2023-02-28T02:36:10;6.88;;;4.20;;
58468;SDS011;44257;44.804;10.220;2023-02-28T02:41:49;10.30;;;4.90;;
58468;SDS011;44257;44.804;10.220;2023-02-28T02:46:44;9.20;;;4.15;;
58468;SDS011;44257;44.804;10.220;2023-02-28T02:49:16;7.30;;;4.38;;
58468;SDS011;44257;44.804;10.220;2023-02-28T02:51:55;10.07;;;4.72;;
58468;SDS011;44257;44.804;10.220;2023-02-28T02:54:28;7.55;;;5.13;;
58468;SDS011;44257;44.804;10.220;2023-02-28T02:56:58;6.80;;;4.28;;
58468;SDS011;44257;44.804;10.220;2023-02-28T02:59:28;12.43;;;4.78;;
58468;SDS011;44257;44.804;10.220;2023-02-28T03:01:57;9.32;;;4.45;;
58468;SDS011;44257;44.804;10.220;2023-02-28T03:04:27;9.18;;;4.28;;
58468;SDS011;44257;44.804;10.220;2023-02-28T03:06:58;8.18;;;4.57;;
58468;SDS011;44257;44.804;10.220;2023-02-28T03:09:24;7.40;;;4.65;;
58468;SDS011;44257;44.804;10.220;2023-02-28T03:11:52;8.13;;;4.72;;
58468;SDS011;44257;44.804;10.220;2023-02-28T03:17:27;8.57;;;3.88;;
58468;SDS011;44257;44.804;10.220;2023-02-28T03:25:29;9.20;;;4.50;;
58468;SDS011;44257;44.804;10.220;2023-02-28T03:28:15;6.68;;;3.95;;
58468;SDS011;44257;44.804;10.220;2023-02-28T03:30:49;11.25;;;4.13;;
58468;SDS011;44257;44.804;10.220;2023-02-28T03:33:30;8.73;;;4.32;;
58468;SDS011;44257;44.804;10.220;2023-02-28T03:36:05;8.63;;;4.68;;
58468;SDS011;44257;44.804;10.220;2023-02-28T03:43:51;5.53;;;3.80;;
58468;SDS011;44257;44.804;10.220;2023-02-28T03:46:41;9.85;;;4.43;;
58468;SDS011;44257;44.804;10.220;2023-02-28T03:49:13;11.32;;;5.10;;
58468;SDS011;44257;44.804;10.220;2023-02-28T03:51:57;7.22;;;4.47;;
58468;SDS011;44257;44.804;10.220;2023-02-28T03:54:31;10.18;;;4.35;;
58468;SDS011;44257;44.804;10.220;2023-02-28T03:59:47;9.10;;;4.40;;
58468;SDS011;44257;44.804;10.220;2023-02-28T04:02:19;8.43;;;4.53;;
58468;SDS011;44257;44.804;10.220;2023-02-28T04:04:45;7.40;;;3.88;;
58468;SDS011;44257;44.804;10.220;2023-02-28T04:07:13;8.73;;;4.63;;
58468;SDS011;44257;44.804;10.220;2023-02-28T04:09:39;9.15;;;4.25;;
58468;SDS011;44257;44.804;10.220;2023-02-28T04:12:06;10.25;;;4.50;;
58468;SDS011;44257;44.804;10.220;2023-02-28T04:14:32;7.90;;;4.03;;
58468;SDS011;44257;44.804;10.220;2023-02-28T04:16:58;7.75;;;4.65;;
58468;SDS011;44257;44.804;10.220;2023-02-28T04:19:24;9.55;;;4.32;;
58468;SDS011;44257;44.804;10.220;2023-02-28T04:21:50;8.05;;;4.15;;
58468;SDS011;44257;44.804;10.220;2023-02-28T04:24:18;17.70;;;5.30;;
58468;SDS011;44257;44.804;10.220;2023-02-28T04:26:52;7.63;;;4.32;;
58468;SDS011;44257;44.804;10.220;2023-02-28T04:29:24;11.55;;;4.60;;
58468;SDS011;44257;44.804;10.220;2023-02-28T04:31:52;14.75;;;4.88;;
58468;SDS011;44257;44.804;10.220;2023-02-28T04:34:18;7.55;;;4.65;;
58468;SDS011;44257;44.804;10.220;2023-02-28T04:36:46;11.15;;;4.65;;
58468;SDS011;44257;44.804;10.220;2023-02-28T04:39:14;6.93;;;3.95;;
58468;SDS011;44257;44.804;10.220;2023-02-28T04:41:43;8.75;;;4.90;;
58468;SDS011;44257;44.804;10.220;2023-02-28T04:44:10;9.55;;;4.65;;
58468;SDS011;44257;44.804;10.220;2023-02-28T04:46:36;8.10;;;4.47;;
58468;SDS011;44257;44.804;10.220;2023-02-28T04:49:02;6.90;;;4.15;;
58468;SDS011;44257;44.804;10.220;2023-02-28T04:51:28;8.88;;;4.78;;
58468;SDS011;44257;44.804;10.220;2023-02-28T04:53:54;8.85;;;4.20;;
58468;SDS011;44257;44.804;10.220;2023-02-28T04:56:20;11.05;;;4.55;;
58468;SDS011;44257;44.804;10.220;2023-02-28T04:58:46;9.25;;;5.15;;
58468;SDS011;44257;44.804;10.220;2023-02-28T05:01:17;9.43;;;4.70;;
58468;SDS011;44257;44.804;10.220;2023-02-28T05:03:46;9.57;;;4.22;;
58468;SDS011;44257;44.804;10.220;2023-02-28T05:06:13;7.88;;;5.18;;
58468;SDS011;44257;44.804;10.220;2023-02-28T05:08:39;9.32;;;4.28;;
58468;SDS011;44257;44.804;10.220;2023-02-28T05:11:07;9.23;;;4.90;;
58468;SDS011;44257;44.804;10.220;2023-02-28T05:13:38;8.32;;;4.30;;
58468;SDS011;44257;44.804;10.220;2023-02-28T05:16:04;7.82;;;4.05;;
58468;SDS011;44257;44.804;10.220;2023-02-28T05:18:30;7.05;;;3.92;;
58468;SDS011;44257;44.804;10.220;2023-02-28T05:20:56;9.35;;;4.00;;
58468;SDS011;44257;44.804;10.220;2023-02-28T05:23:22;7.95;;;4.78;;
58468;SDS011;44257;44.804;10.220;2023-02-28T05:25:48;10.55;;;4.45;;
58468;SDS011;44257;44.804;10.220;2023-02-28T05:28:14;10.82;;;4.65;;
58468;SDS011;44257;44.804;10.220;2023-02-28T05:30:40;9.02;;;4.68;;
58468;SDS011;44257;44.804;10.220;2023-02-28T05:33:06;7.10;;;3.95;;
58468;SDS011;44257;44.804;10.220;2023-02-28T05:35:32;7.13;;;4.10;;
58468;SDS011;44257;44.804;10.220;2023-02-28T05:37:58;6.93;;;4.07;;
58468;SDS011;44257;44.804;10.220;2023-02-28T05:40:23;7.60;;;4.20;;
58468;SDS011;44257;44.804;10.220;2023-02-28T05:42:50;7.93;;;4.07;;
58468;SDS011;44257;44.804;10.220;2023-02-28T05:45:16;9.65;;;4.68;;
58468;SDS011;44257;44.804;10.220;2023-02-28T05:47:42;9.73;;;4.70;;
58468;SDS011;44257;44.804;10.220;2023-02-28T05:50:08;9.95;;;4.85;;
58468;SDS011;44257;44.804;10.220;2023-02-28T05:52:35;7.38;;;3.97;;
58468;SDS011;44257;44.804;10.220;2023-02-28T05:55:02;8.05;;;4.95;;
58468;SDS011;44257;44.804;10.220;2023-02-28T05:57:28;8.82;;;4.50;;
58468;SDS011;44257;44.804;10.220;2023-02-28T05:59:54;8.75;;;5.15;;
58468;SDS011;44257;44.804;10.220;2023-02-28T06:02:20;9.90;;;4.65;;
58468;SDS011;44257;44.804;10.220;2023-02-28T06:04:46;11.30;;;5.18;;
58468;SDS011;44257;44.804;10.220;2023-02-28T06:07:12;9.27;;;5.30;;
58468;SDS011;44257;44.804;10.220;2023-02-28T06:09:38;8.68;;;4.85;;
58468;SDS011;44257;44.804;10.220;2023-02-28T06:12:05;11.80;;;4.88;;
58468;SDS011;44257;44.804;10.220;2023-02-28T06:14:33;11.27;;;5.43;;
58468;SDS011;44257;44.804;10.220;2023-02-28T06:17:00;11.13;;;4.95;;
58468;SDS011;44257;44.804;10.220;2023-02-28T06:19:26;7.85;;;4.45;;
58468;SDS011;44257;44.804;10.220;2023-02-28T06:21:53;9.35;;;4.97;;
58468;SDS011;44257;44.804;10.220;2023-02-28T06:24:24;15.18;;;4.28;;
58468;SDS011;44257;44.804;10.220;2023-02-28T06:26:53;9.35;;;4.93;;
58468;SDS011;44257;44.804;10.220;2023-02-28T06:29:18;9.27;;;4.90;;
58468;SDS011;44257;44.804;10.220;2023-02-28T06:31:45;9.20;;;5.30;;
58468;SDS011;44257;44.804;10.220;2023-02-28T06:34:12;9.05;;;5.28;;
58468;SDS011;44257;44.804;10.220;2023-02-28T06:36:38;12.27;;;4.80;;
58468;SDS011;44257;44.804;10.220;2023-02-28T06:39:06;9.55;;;4.68;;
58468;SDS011;44257;44.804;10.220;2023-02-28T06:41:33;9.60;;;4.07;;
58468;SDS011;44257;44.804;10.220;2023-02-28T06:44:04;9.52;;;5.40;;
58468;SDS011;44257;44.804;10.220;2023-02-28T06:46:31;12.30;;;6.95;;
58468;SDS011;44257;44.804;10.220;2023-02-28T06:48:57;9.52;;;5.35;;
58468;SDS011;44257;44.804;10.220;2023-02-28T06:51:23;12.25;;;5.65;;
58468;SDS011;44257;44.804;10.220;2023-02-28T06:53:49;13.23;;;6.50;;
58468;SDS011;44257;44.804;10.220;2023-02-28T06:56:16;10.80;;;5.00;;
58468;SDS011;44257;44.804;10.220;2023-02-28T06:58:45;8.63;;;4.97;;
58468;SDS011;44257;44.804;10.220;2023-02-28T07:01:13;7.72;;;4.35;;
58468;SDS011;44257;44.804;10.220;2023-02-28T07:03:39;10.38;;;5.38;;
58468;SDS011;44257;44.804;10.220;2023-02-28T07:06:05;13.13;;;5.78;;
58468;SDS011;44257;44.804;10.220;2023-02-28T07:08:32;10.90;;;5.68;;
58468;SDS011;44257;44.804;10.220;2023-02-28T07:10:59;8.52;;;5.43;;
58468;SDS011;44257;44.804;10.220;2023-02-28T07:13:25;12.40;;;5.90;;
58468;SDS011;44257;44.804;10.220;2023-02-28T07:18:27;10.23;;;6.38;;
58468;SDS011;44257;44.804;10.220;2023-02-28T07:20:53;15.05;;;5.60;;
58468;SDS011;44257;44.804;10.220;2023-02-28T07:23:20;8.95;;;5.32;;
58468;SDS011;44257;44.804;10.220;2023-02-28T07:25:46;9.25;;;5.93;;
58468;SDS011;44257;44.804;10.220;2023-02-28T07:39:28;11.32;;;5.25;;
58468;SDS011;44257;44.804;10.220;2023-02-28T07:41:54;12.15;;;5.40;;
58468;SDS011;44257;44.804;10.220;2023-02-28T07:44:25;10.32;;;5.13;;
58468;SDS011;44257;44.804;10.220;2023-02-28T07:46:51;10.18;;;5.15;;
58468;SDS011;44257;44.804;10.220;2023-02-28T07:49:17;12.43;;;5.75;;
58468;SDS011;44257;44.804;10.220;2023-02-28T07:51:44;9.85;;;6.00;;
58468;SDS011;44257;44.804;10.220;2023-02-28T07:54:09;11.82;;;5.47;;
58468;SDS011;44257;44.804;10.220;2023-02-28T07:56:35;10.27;;;5.53;;
58468;SDS011;44257;44.804;10.220;2023-02-28T07:59:01;10.93;;;6.13;;
58468;SDS011;44257;44.804;10.220;2023-02-28T08:01:27;10.05;;;5.53;;
58468;SDS011;44257;44.804;10.220;2023-02-28T08:03:53;9.75;;;5.15;;
58468;SDS011;44257;44.804;10.220;2023-02-28T08:06:21;9.48;;;5.18;;
58468;SDS011;44257;44.804;10.220;2023-02-28T08:08:48;9.57;;;5.18;;
58468;SDS011;44257;44.804;10.220;2023-02-28T08:11:15;10.77;;;5.47;;
58468;SDS011;44257;44.804;10.220;2023-02-28T08:13:42;14.55;;;6.47;;
58468;SDS011;44257;44.804;10.220;2023-02-28T08:16:09;10.57;;;5.60;;
58468;SDS011;44257;44.804;10.220;2023-02-28T08:18:36;11.63;;;5.95;;
58468;SDS011;44257;44.804;10.220;2023-02-28T08:21:08;12.93;;;6.38;;
58468;SDS011;44257;44.804;10.220;2023-02-28T08:23:35;13.02;;;6.15;;
58468;SDS011;44257;44.804;10.220;2023-02-28T08:26:02;8.73;;;5.13;;
58468;SDS011;44257;44.804;10.220;2023-02-28T08:28:28;14.30;;;6.32;;
58468;SDS011;44257;44.804;10.220;2023-02-28T08:30:54;8.80;;;5.72;;
58468;SDS011;44257;44.804;10.220;2023-02-28T08:33:20;15.00;;;6.20;;
58468;SDS011;44257;44.804;10.220;2023-02-28T08:35:47;10.00;;;5.57;;
58468;SDS011;44257;44.804;10.220;2023-02-28T08:38:13;12.15;;;5.90;;
58468;SDS011;44257;44.804;10.220;2023-02-28T08:40:39;15.00;;;6.32;;
58468;SDS011;44257;44.804;10.220;2023-02-28T08:43:05;11.10;;;6.35;;
58468;SDS011;44257;44.804;10.220;2023-02-28T08:45:31;11.13;;;5.68;;
58468;SDS011;44257;44.804;10.220;2023-02-28T08:47:57;10.23;;;6.32;;
58468;SDS011;44257;44.804;10.220;2023-02-28T08:50:23;10.90;;;5.80;;
58468;SDS011;44257;44.804;10.220;2023-02-28T08:52:49;10.43;;;6.07;;
58468;SDS011;44257;44.804;10.220;2023-02-28T08:55:14;11.27;;;6.13;;
58468;SDS011;44257;44.804;10.220;2023-02-28T08:57:40;12.23;;;5.88;;
58468;SDS011;44257;44.804;10.220;2023-02-28T09:00:06;9.90;;;5.82;;
58468;SDS011;44257;44.804;10.220;2023-02-28T09:02:33;15.18;;;6.13;;
58468;SDS011;44257;44.804;10.220;2023-02-28T09:04:58;13.93;;;6.80;;
58468;SDS011;44257;44.804;10.220;2023-02-28T09:07:24;14.55;;;6.82;;
58468;SDS011;44257;44.804;10.220;2023-02-28T09:09:50;13.40;;;6.47;;
58468;SDS011;44257;44.804;10.220;2023-02-28T09:12:22;12.40;;;6.65;;
58468;SDS011;44257;44.804;10.220;2023-02-28T09:14:52;11.65;;;6.18;;
58468;SDS011;44257;44.804;10.220;2023-02-28T09:17:19;11.30;;;6.45;;
58468;SDS011;44257;44.804;10.220;2023-02-28T09:19:45;11.15;;;5.60;;
58468;SDS011;44257;44.804;10.220;2023-02-28T09:22:13;13.50;;;6.53;;
58468;SDS011;44257;44.804;10.220;2023-02-28T09:24:39;13.55;;;6.32;;
58468;SDS011;44257;44.804;10.220;2023-02-28T09:27:05;11.82;;;6.97;;
58468;SDS011;44257;44.804;10.220;2023-02-28T09:29:32;12.10;;;6.22;;
58468;SDS011;44257;44.804;10.220;2023-02-28T09:31:58;14.10;;;6.60;;
58468;SDS011;44257;44.804;10.220;2023-02-28T09:34:25;11.68;;;5.97;;
58468;SDS011;44257;44.804;10.220;2023-02-28T09:36:51;16.27;;;6.13;;
58468;SDS011;44257;44.804;10.220;2023-02-28T09:39:20;12.15;;;6.60;;
58468;SDS011;44257;44.804;10.220;2023-02-28T09:41:47;12.30;;;6.35;;
58468;SDS011;44257;44.804;10.220;2023-02-28T09:44:25;10.75;;;6.20;;
58468;SDS011;44257;44.804;10.220;2023-02-28T09:57:52;10.23;;;5.72;;
58468;SDS011;44257;44.804;10.220;2023-02-28T10:05:11;10.35;;;6.32;;
58468;SDS011;44257;44.804;10.220;2023-02-28T10:15:56;10.27;;;6.00;;
58468;SDS011;44257;44.804;10.220;2023-02-28T10:18:30;10.73;;;6.10;;
58468;SDS011;44257;44.804;10.220;2023-02-28T10:21:13;10.68;;;6.13;;
58468;SDS011;44257;44.804;10.220;2023-02-28T10:24:02;10.23;;;5.65;;
58468;SDS011;44257;44.804;10.220;2023-02-28T10:26:45;11.43;;;6.35;;
58468;SDS011;44257;44.804;10.220;2023-02-28T10:29:13;13.80;;;6.63;;
58468;SDS011;44257;44.804;10.220;2023-02-28T10:31:40;11.43;;;6.53;;
58468;SDS011;44257;44.804;10.220;2023-02-28T10:34:07;13.18;;;6.15;;
58468;SDS011;44257;44.804;10.220;2023-02-28T10:36:36;10.05;;;6.05;;
58468;SDS011;44257;44.804;10.220;2023-02-28T10:39:21;11.15;;;6.22;;
58468;SDS011;44257;44.804;10.220;2023-02-28T10:42:22;10.93;;;6.53;;
58468;SDS011;44257;44.804;10.220;2023-02-28T10:45:13;11.68;;;6.43;;
58468;SDS011;44257;44.804;10.220;2023-02-28T10:47:40;13.05;;;6.65;;
58468;SDS011;44257;44.804;10.220;2023-02-28T10:55:57;13.02;;;7.18;;
58468;SDS011;44257;44.804;10.220;2023-02-28T11:01:19;10.75;;;6.20;;
58468;SDS011;44257;44.804;10.220;2023-02-28T11:03:45;11.52;;;6.72;;
58468;SDS011;44257;44.804;10.220;2023-02-28T11:06:19;11.55;;;6.25;;
58468;SDS011;44257;44.804;10.220;2023-02-28T11:08:51;10.32;;;6.40;;
58468;SDS011;44257;44.804;10.220;2023-02-28T11:11:19;11.73;;;6.80;;
58468;SDS011;44257;44.804;10.220;2023-02-28T11:13:50;11.55;;;5.95;;
58468;SDS011;44257;44.804;10.220;2023-02-28T11:16:18;10.50;;;6.03;;
58468;SDS011;44257;44.804;10.220;2023-02-28T11:21:20;13.02;;;6.30;;
58468;SDS011;44257;44.804;10.220;2023-02-28T11:24:36;12.68;;;6.78;;
58468;SDS011;44257;44.804;10.220;2023-02-28T11:26:48;9.75;;;5.72;;
58468;SDS011;44257;44.804;10.220;2023-02-28T11:29:19;10.70;;;6.47;;
58468;SDS011;44257;44.804;10.220;2023-02-28T11:32:04;8.45;;;5.53;;
58468;SDS011;44257;44.804;10.220;2023-02-28T11:34:34;12.40;;;6.45;;
58468;SDS011;44257;44.804;10.220;2023-02-28T11:37:01;11.90;;;6.45;;
58468;SDS011;44257;44.804;10.220;2023-02-28T11:39:31;12.93;;;6.40;;
58468;SDS011;44257;44.804;10.220;2023-02-28T11:47:21;15.00;;;6.45;;
58468;SDS011;44257;44.804;10.220;2023-02-28T11:52:50;11.70;;;6.28;;
58468;SDS011;44257;44.804;10.220;2023-02-28T11:58:11;13.20;;;6.75;;
58468;SDS011;44257;44.804;10.220;2023-02-28T12:01:11;13.43;;;7.10;;
58468;SDS011;44257;44.804;10.220;2023-02-28T12:11:32;10.70;;;6.63;;
58468;SDS011;44257;44.804;10.220;2023-02-28T12:17:18;10.05;;;6.50;;
58468;SDS011;44257;44.804;10.220;2023-02-28T12:20:13;16.88;;;7.53;;
58468;SDS011;44257;44.804;10.220;2023-02-28T12:28:42;11.63;;;6.28;;
58468;SDS011;44257;44.804;10.220;2023-02-28T12:31:20;11.43;;;5.95;;
58468;SDS011;44257;44.804;10.220;2023-02-28T12:33:53;16.38;;;7.35;;
58468;SDS011;44257;44.804;10.220;2023-02-28T12:36:24;11.43;;;6.40;;
58468;SDS011;44257;44.804;10.220;2023-02-28T12:44:15;13.20;;;7.38;;
58468;SDS011;44257;44.804;10.220;2023-02-28T12:46:49;12.18;;;6.68;;
58468;SDS011;44257;44.804;10.220;2023-02-28T12:49:19;13.57;;;7.85;;
58468;SDS011;44257;44.804;10.220;2023-02-28T12:51:46;11.50;;;6.57;;
58468;SDS011;44257;44.804;10.220;2023-02-28T13:10:12;14.57;;;6.78;;
58468;SDS011;44257;44.804;10.220;2023-02-28T13:12:51;11.90;;;6.07;;
58468;SDS011;44257;44.804;10.220;2023-02-28T13:15:21;13.35;;;6.93;;
58468;SDS011;44257;44.804;10.220;2023-02-28T13:17:50;16.33;;;7.25;;
58468;SDS011;44257;44.804;10.220;2023-02-28T13:20:25;13.07;;;6.15;;
58468;SDS011;44257;44.804;10.220;2023-02-28T13:23:01;13.43;;;6.43;;
58468;SDS011;44257;44.804;10.220;2023-02-28T13:26:10;12.52;;;6.43;;
58468;SDS011;44257;44.804;10.220;2023-02-28T13:28:56;12.55;;;6.07;;
58468;SDS011;44257;44.804;10.220;2023-02-28T13:31:16;11.73;;;6.35;;
58468;SDS011;44257;44.804;10.220;2023-02-28T13:38:41;15.05;;;7.18;;
58468;SDS011;44257;44.804;10.220;2023-02-28T13:47:21;16.38;;;6.93;;
58468;SDS011;44257;44.804;10.220;2023-02-28T13:54:42;13.20;;;7.78;;
58468;SDS011;44257;44.804;10.220;2023-02-28T14:11:25;12.65;;;7.05;;
58468;SDS011;44257;44.804;10.220;2023-02-28T14:13:53;12.93;;;7.85;;
58468;SDS011;44257;44.804;10.220;2023-02-28T14:16:23;10.63;;;7.03;;
58468;SDS011;44257;44.804;10.220;2023-02-28T14:24:03;12.00;;;7.55;;
58468;SDS011;44257;44.804;10.220;2023-02-28T14:26:56;12.40;;;6.70;;
58468;SDS011;44257;44.804;10.220;2023-02-28T14:35:13;11.95;;;7.15;;
58468;SDS011;44257;44.804;10.220;2023-02-28T14:37:47;12.35;;;6.55;;
58468;SDS011;44257;44.804;10.220;2023-02-28T14:40:19;12.38;;;7.00;;
58468;SDS011;44257;44.804;10.220;2023-02-28T14:43:00;14.40;;;7.60;;
58468;SDS011;44257;44.804;10.220;2023-02-28T14:45:34;14.35;;;7.20;;
58468;SDS011;44257;44.804;10.220;2023-02-28T14:48:02;12.73;;;6.82;;
58468;SDS011;44257;44.804;10.220;2023-02-28T14:50:35;14.13;;;7.35;;
58468;SDS011;44257;44.804;10.220;2023-02-28T14:53:02;14.90;;;7.45;;
58468;SDS011;44257;44.804;10.220;2023-02-28T14:55:29;12.55;;;7.22;;
58468;SDS011;44257;44.804;10.220;2023-02-28T14:57:58;15.45;;;8.50;;
58468;SDS011;44257;44.804;10.220;2023-02-28T15:00:46;13.60;;;7.53;;
58468;SDS011;44257;44.804;10.220;2023-02-28T15:03:18;15.07;;;7.65;;
58468;SDS011;44257;44.804;10.220;2023-02-28T15:05:56;11.52;;;7.15;;
58468;SDS011;44257;44.804;10.220;2023-02-28T15:08:38;15.17;;;7.37;;
58468;SDS011;44257;44.804;10.220;2023-02-28T15:11:05;17.83;;;8.43;;
58468;SDS011;44257;44.804;10.220;2023-02-28T15:13:42;14.25;;;7.93;;
58468;SDS011;44257;44.804;10.220;2023-02-28T15:16:18;12.65;;;7.15;;
58468;SDS011;44257;44.804;10.220;2023-02-28T15:19:21;11.85;;;6.78;;
58468;SDS011;44257;44.804;10.220;2023-02-28T15:21:50;15.10;;;6.93;;
58468;SDS011;44257;44.804;10.220;2023-02-28T15:26:56;14.48;;;8.50;;
58468;SDS011;44257;44.804;10.220;2023-02-28T15:32:00;17.17;;;7.80;;
58468;SDS011;44257;44.804;10.220;2023-02-28T15:34:43;15.60;;;7.95;;
58468;SDS011;44257;44.804;10.220;2023-02-28T15:40:13;16.43;;;8.17;;
58468;SDS011;44257;44.804;10.220;2023-02-28T15:42:39;12.55;;;7.43;;
58468;SDS011;44257;44.804;10.220;2023-02-28T15:45:05;16.40;;;8.38;;
58468;SDS011;44257;44.804;10.220;2023-02-28T15:47:51;16.42;;;8.00;;
58468;SDS011;44257;44.804;10.220;2023-02-28T15:50:17;21.23;;;8.75;;
58468;SDS011;44257;44.804;10.220;2023-02-28T15:52:43;20.17;;;12.30;;
58468;SDS011;44257;44.804;10.220;2023-02-28T15:55:11;16.25;;;8.27;;
58468;SDS011;44257;44.804;10.220;2023-02-28T15:57:50;16.42;;;7.93;;
58468;SDS011;44257;44.804;10.220;2023-02-28T16:00:20;13.50;;;7.72;;
58468;SDS011;44257;44.804;10.220;2023-02-28T16:02:47;16.05;;;8.00;;
58468;SDS011;44257;44.804;10.220;2023-02-28T16:07:53;13.55;;;7.30;;
58468;SDS011;44257;44.804;10.220;2023-02-28T16:10:21;18.38;;;7.70;;
58468;SDS011;44257;44.804;10.220;2023-02-28T16:12:52;12.15;;;7.13;;
58468;SDS011;44257;44.804;10.220;2023-02-28T16:15:24;11.77;;;7.10;;
58468;SDS011;44257;44.804;10.220;2023-02-28T16:17:55;12.73;;;7.15;;
58468;SDS011;44257;44.804;10.220;2023-02-28T16:20:26;17.65;;;7.68;;
58468;SDS011;44257;44.804;10.220;2023-02-28T16:22:56;13.30;;;7.90;;
58468;SDS011;44257;44.804;10.220;2023-02-28T16:25:32;14.98;;;8.13;;
58468;SDS011;44257;44.804;10.220;2023-02-28T16:28:00;14.65;;;7.00;;
58468;SDS011;44257;44.804;10.220;2023-02-28T16:30:27;14.63;;;7.68;;
58468;SDS011;44257;44.804;10.220;2023-02-28T16:32:56;13.20;;;7.90;;
58468;SDS011;44257;44.804;10.220;2023-02-28T16:35:23;18.25;;;7.65;;
58468;SDS011;44257;44.804;10.220;2023-02-28T16:37:52;16.27;;;6.82;;
58468;SDS011;44257;44.804;10.220;2023-02-28T16:40:19;17.95;;;7.68;;
58468;SDS011;44257;44.804;10.220;2023-02-28T16:42:51;17.95;;;7.75;;
58468;SDS011;44257;44.804;10.220;2023-02-28T16:45:22;12.55;;;7.45;;
58468;SDS011;44257;44.804;10.220;2023-02-28T16:47:49;12.50;;;7.20;;
58468;SDS011;44257;44.804;10.220;2023-02-28T16:50:16;12.02;;;7.35;;
58468;SDS011;44257;44.804;10.220;2023-02-28T16:52:44;15.07;;;7.72;;
58468;SDS011;44257;44.804;10.220;2023-02-28T16:55:10;19.83;;;7.97;;
58468;SDS011;44257;44.804;10.220;2023-02-28T16:57:36;17.92;;;8.13;;
58468;SDS011;44257;44.804;10.220;2023-02-28T17:00:03;12.88;;;7.68;;
58468;SDS011;44257;44.804;10.220;2023-02-28T17:02:33;13.50;;;7.88;;
58468;SDS011;44257;44.804;10.220;2023-02-28T17:04:59;13.50;;;8.10;;
58468;SDS011;44257;44.804;10.220;2023-02-28T17:07:25;16.73;;;8.32;;
58468;SDS011;44257;44.804;10.220;2023-02-28T17:09:51;16.45;;;7.47;;
58468;SDS011;44257;44.804;10.220;2023-02-28T17:12:17;14.65;;;7.13;;
58468;SDS011;44257;44.804;10.220;2023-02-28T17:14:43;15.10;;;7.43;;
58468;SDS011;44257;44.804;10.220;2023-02-28T17:17:10;14.52;;;7.75;;
58468;SDS011;44257;44.804;10.220;2023-02-28T17:19:43;16.02;;;8.70;;
58468;SDS011;44257;44.804;10.220;2023-02-28T17:22:09;17.17;;;7.55;;
58468;SDS011;44257;44.804;10.220;2023-02-28T17:24:35;14.57;;;6.85;;
58468;SDS011;44257;44.804;10.220;2023-02-28T17:27:01;18.48;;;8.15;;
58468;SDS011;44257;44.804;10.220;2023-02-28T17:29:27;20.30;;;7.97;;
58468;SDS011;44257;44.804;10.220;2023-02-28T17:31:53;17.27;;;7.38;;
58468;SDS011;44257;44.804;10.220;2023-02-28T17:34:19;16.10;;;7.55;;
58468;SDS011;44257;44.804;10.220;2023-02-28T17:36:48;14.52;;;7.30;;
58468;SDS011;44257;44.804;10.220;2023-02-28T17:39:17;17.05;;;8.20;;
58468;SDS011;44257;44.804;10.220;2023-02-28T17:41:53;15.43;;;7.70;;
58468;SDS011;44257;44.804;10.220;2023-02-28T17:44:20;14.60;;;7.22;;
58468;SDS011;44257;44.804;10.220;2023-02-28T17:46:46;16.40;;;8.57;;
58468;SDS011;44257;44.804;10.220;2023-02-28T17:49:14;15.32;;;7.50;;
58468;SDS011;44257;44.804;10.220;2023-02-28T17:51:40;15.70;;;7.53;;